CCGS Cape Naden — CFN5482 — position and weather

sailwx.info

Track history (hours):
 
Tides and Currents Weather Stations Pressure Air Temp Water Temp Dewpoint Dewpoint Depression Visibility Wind Speed Wind Dir Waves Ship Positions

CCGS Cape Naden

Last reported at 2016-Aug-29 14:32 UTC. Time now 2016-Aug-29 14:46 UTC.
Position N 48°51' W 123°30'.

Length 15 m; draft 0.8 m.

Type: SAR. MMSI: 316017162.

Date/timePositionNaut miles runAvg speedWind from/ knotsBaromVisibWave heightAir tempDewpointWater temp
2016-Aug-29 14:32N 48°51' W 123°30'0 0.0
2016-Aug-29 13:33N 48°51' W 123°30'0 0.0
2016-Aug-29 12:33N 48°51' W 123°30'0 0.0
2016-Aug-29 11:31N 48°51' W 123°30'0 0.0
2016-Aug-29 10:13N 48°51' W 123°30'0 0.0
2016-Aug-29 09:24N 48°51' W 123°30'0 0.0
2016-Aug-29 08:33N 48°51' W 123°30'0 0.0
2016-Aug-29 07:22N 48°51' W 123°30'0 0.0
2016-Aug-29 06:32N 48°51' W 123°30'0 0.0
2016-Aug-29 05:31N 48°51' W 123°30'0 0.0
2016-Aug-29 04:33N 48°51' W 123°30'0 0.0
2016-Aug-29 03:28N 48°51' W 123°30'0 0.0
2016-Aug-29 02:23N 48°51' W 123°30'0 0.0
2016-Aug-29 01:33N 48°51' W 123°30'0 0.0
2016-Aug-29 00:33N 48°51' W 123°30'0 0.0
2016-Aug-28 23:33N 48°51' W 123°30'0 0.0
2016-Aug-28 22:33N 48°51' W 123°30'0 0.0
2016-Aug-28 21:33N 48°51' W 123°30'0 0.0
2016-Aug-28 20:33N 48°51' W 123°30'0 0.0
2016-Aug-28 19:33N 48°51' W 123°30'0 0.0
2016-Aug-28 18:33N 48°51' W 123°30'0 0.0
2016-Aug-28 17:33N 48°51' W 123°30'0 0.0
2016-Aug-28 16:33N 48°51' W 123°30'0 0.0
2016-Aug-28 15:31N 48°51' W 123°30'0 0.0
2016-Aug-28 14:25N 48°51' W 123°30'0 0.0
2016-Aug-28 13:32N 48°51' W 123°30'0 0.0
2016-Aug-28 12:25N 48°51' W 123°30'0 0.0
2016-Aug-28 11:31N 48°51' W 123°30'0 0.0
2016-Aug-28 10:29N 48°51' W 123°30'0 0.0
2016-Aug-28 09:32N 48°51' W 123°30'0 0.0
2016-Aug-28 08:33N 48°51' W 123°30'0 0.0
2016-Aug-28 07:33N 48°51' W 123°30'0 0.0
2016-Aug-28 06:33N 48°51' W 123°30'0 0.0
2016-Aug-28 05:33N 48°51' W 123°30'0 0.0
2016-Aug-28 04:33N 48°51' W 123°30'0 0.0
2016-Aug-28 03:33N 48°51' W 123°30'0 0.0
2016-Aug-28 02:33N 48°51' W 123°30'0 0.0
2016-Aug-28 01:33N 48°51' W 123°30'0 0.0
2016-Aug-28 00:33N 48°51' W 123°30'0 0.0
2016-Aug-27 23:33N 48°51' W 123°30'0 0.0
2016-Aug-27 22:33N 48°51' W 123°30'0 0.0
2016-Aug-27 21:33N 48°51' W 123°30'0 0.0
2016-Aug-27 20:34N 48°51' W 123°30'0 0.0
2016-Aug-27 19:31N 48°51' W 123°30'0 0.0
2016-Aug-27 18:32N 48°51' W 123°30'0 0.0
2016-Aug-27 17:33N 48°51' W 123°30'0 0.0
2016-Aug-27 16:31N 48°51' W 123°30'0 0.0
2016-Aug-27 15:33N 48°51' W 123°30'0 0.0
2016-Aug-27 14:33N 48°51' W 123°30'0 0.0
2016-Aug-27 13:32N 48°51' W 123°30'0 0.0
2016-Aug-27 12:17N 48°51' W 123°30'0 0.0
2016-Aug-27 11:28N 48°51' W 123°30'0 0.0
2016-Aug-27 10:32N 48°51' W 123°30'0 0.0
2016-Aug-27 09:31N 48°51' W 123°30'0 0.0
2016-Aug-27 08:31N 48°51' W 123°30'0 0.0
2016-Aug-27 07:32N 48°51' W 123°30'0 0.0
2016-Aug-27 06:25N 48°51' W 123°30'0 0.0
2016-Aug-27 04:33N 48°51' W 123°30'0 0.0
2016-Aug-27 03:33N 48°51' W 123°30'0 0.0
2016-Aug-27 02:33N 48°51' W 123°30'0 0.0
2016-Aug-27 01:33N 48°51' W 123°30'0 0.0
2016-Aug-27 00:33N 48°51' W 123°30'0 0.0
2016-Aug-26 23:31N 48°51' W 123°30'0 0.0
2016-Aug-26 22:32N 48°51' W 123°30'4 3.9
2016-Aug-26 21:32N 48°49' W 123°25'10 9.5
2016-Aug-26 20:30N 48°39' W 123°27'2 1.8
2016-Aug-26 19:29N 48°41' W 123°29'9 9.9
2016-Aug-26 18:32N 48°50' W 123°28'2 1.9
2016-Aug-26 17:33N 48°51' W 123°30'0 0.0
2016-Aug-26 16:32N 48°51' W 123°30'0 0.0
2016-Aug-26 15:32N 48°51' W 123°30'0 0.0
2016-Aug-26 14:33N 48°51' W 123°30'0 0.0
2016-Aug-26 13:33N 48°51' W 123°30'0 0.0
2016-Aug-26 12:27N 48°51' W 123°30'0 0.0
2016-Aug-26 10:29N 48°51' W 123°30'0 0.0
2016-Aug-26 09:32N 48°51' W 123°30'0 0.0
2016-Aug-26 08:32N 48°51' W 123°30'0 0.0
2016-Aug-26 07:33N 48°51' W 123°30'0 0.0
2016-Aug-26 06:33N 48°51' W 123°30'0 0.0
2016-Aug-26 04:21N 48°51' W 123°30'0 0.0
2016-Aug-26 03:21N 48°51' W 123°30'0 0.0
2016-Aug-26 02:32N 48°51' W 123°30'0 0.0
2016-Aug-26 01:33N 48°51' W 123°30'0 0.0
2016-Aug-26 00:33N 48°51' W 123°30'0 0.0
2016-Aug-25 23:33N 48°51' W 123°30'0 0.0
2016-Aug-25 22:33N 48°51' W 123°30'0 0.0
2016-Aug-25 21:31N 48°51' W 123°30'0 0.0
2016-Aug-25 20:06N 48°51' W 123°30'0 0.0
2016-Aug-25 19:33N 48°51' W 123°30'0 0.0
2016-Aug-25 18:33N 48°51' W 123°30'0 0.0
2016-Aug-25 17:32N 48°51' W 123°30'0 0.0
2016-Aug-25 16:33N 48°51' W 123°30'0 0.0
2016-Aug-25 15:26N 48°51' W 123°30'0 0.0
2016-Aug-25 14:29N 48°51' W 123°30'0 0.0
2016-Aug-25 13:34N 48°51' W 123°30'0 0.0
2016-Aug-25 12:30N 48°51' W 123°30'0 0.0
2016-Aug-25 11:11N 48°51' W 123°30'0 0.0
2016-Aug-25 09:06N 48°51' W 123°30'0 0.0
2016-Aug-25 08:17N 48°51' W 123°30'0 0.0
2016-Aug-25 07:33N 48°51' W 123°30'0 0.0
2016-Aug-25 06:32N 48°51' W 123°30'0 0.0
2016-Aug-25 04:32N 48°51' W 123°30'0 0.0
2016-Aug-25 03:33N 48°51' W 123°30'0 0.0
2016-Aug-25 02:33N 48°51' W 123°30'0 0.0
2016-Aug-25 01:34N 48°51' W 123°30'0 0.0
2016-Aug-25 00:31N 48°51' W 123°30'0 0.0
2016-Aug-24 23:30N 48°51' W 123°30'0 0.0
2016-Aug-24 22:33N 48°51' W 123°30'0 0.0
2016-Aug-24 21:24N 48°51' W 123°30'0 0.0
2016-Aug-24 20:33N 48°51' W 123°30'0 0.0
2016-Aug-24 19:32N 48°51' W 123°30'2 1.3
2016-Aug-24 18:14N 48°52' W 123°27'2 2.2
2016-Aug-24 17:30N 48°50' W 123°26'3 0.4
2016-Aug-24 11:08N 48°51' W 123°30'0 0.0
2016-Aug-24 10:31N 48°51' W 123°30'0 0.0
2016-Aug-24 09:33N 48°51' W 123°30'0 0.0
2016-Aug-24 08:29N 48°51' W 123°30'0 0.0
2016-Aug-24 07:32N 48°51' W 123°30'0 0.0
2016-Aug-24 06:32N 48°51' W 123°30'0 0.0
2016-Aug-24 04:31N 48°51' W 123°30'0 0.0
2016-Aug-24 03:30N 48°51' W 123°30'0 0.0
2016-Aug-24 02:27N 48°51' W 123°30'0 0.0
2016-Aug-24 01:31N 48°51' W 123°30'0 0.0
2016-Aug-24 00:25N 48°51' W 123°30'0 0.0
2016-Aug-23 23:31N 48°51' W 123°30'0 0.0
2016-Aug-23 22:31N 48°51' W 123°30'0 0.0
2016-Aug-23 21:30N 48°51' W 123°30'0 0.0
2016-Aug-23 20:33N 48°51' W 123°30'0 0.0
2016-Aug-23 19:33N 48°51' W 123°30'0 0.0
2016-Aug-23 18:32N 48°51' W 123°30'0 0.0
2016-Aug-23 17:33N 48°51' W 123°30'0 0.0
2016-Aug-23 16:33N 48°51' W 123°30'0 0.0
2016-Aug-23 15:34N 48°51' W 123°30'0 0.0
2016-Aug-23 14:09N 48°51' W 123°30'0 0.0
2016-Aug-23 13:30N 48°51' W 123°30'0 0.0
2016-Aug-23 12:25N 48°51' W 123°30'0 0.0
2016-Aug-23 11:31N 48°51' W 123°30'0 0.0
2016-Aug-23 10:32N 48°51' W 123°30'0 0.0
2016-Aug-23 09:34N 48°51' W 123°30'0 0.0
2016-Aug-23 08:33N 48°51' W 123°30'0 0.0
2016-Aug-23 07:33N 48°51' W 123°30'0 0.0
2016-Aug-23 06:33N 48°51' W 123°30'0 0.0
2016-Aug-23 05:31N 48°51' W 123°30'0 0.0
2016-Aug-23 04:33N 48°51' W 123°30'0 0.0
2016-Aug-23 03:31N 48°51' W 123°30'0 0.0
2016-Aug-23 02:33N 48°51' W 123°30'0 0.0
2016-Aug-23 01:31N 48°51' W 123°30'0 0.0
2016-Aug-23 00:32N 48°51' W 123°30'0 0.0
2016-Aug-22 23:33N 48°51' W 123°30'0 0.0
2016-Aug-22 22:33N 48°51' W 123°30'0 0.0
2016-Aug-22 21:17N 48°51' W 123°30'0 0.0
2016-Aug-22 19:29N 48°51' W 123°30'0 0.0
2016-Aug-22 18:22N 48°51' W 123°30'0 0.0
2016-Aug-22 17:24N 48°51' W 123°30'0 0.0
2016-Aug-22 16:31N 48°51' W 123°30'0 0.0
2016-Aug-22 15:32N 48°51' W 123°30'0 0.0
2016-Aug-22 14:33N 48°51' W 123°30'0 0.0
2016-Aug-22 13:33N 48°51' W 123°30'0 0.0
2016-Aug-22 12:33N 48°51' W 123°30'0 0.0
2016-Aug-22 11:33N 48°51' W 123°30'0 0.0
2016-Aug-22 10:33N 48°51' W 123°30'0 0.0
2016-Aug-22 09:33N 48°51' W 123°30'0 0.0
2016-Aug-22 08:33N 48°51' W 123°30'0 0.0
2016-Aug-22 07:33N 48°51' W 123°30'0 0.0
2016-Aug-22 06:32N 48°51' W 123°30'0 0.0
2016-Aug-22 04:31N 48°51' W 123°30'0 0.0
2016-Aug-22 03:33N 48°51' W 123°30'0 0.0
2016-Aug-22 02:33N 48°51' W 123°30'0 0.0
2016-Aug-22 01:23N 48°51' W 123°30'0 0.0
2016-Aug-22 00:26N 48°51' W 123°30'0 0.1
2016-Aug-21 23:25N 48°51' W 123°30'5 4.9
2016-Aug-21 22:21N 48°47' W 123°34'0 0.4
2016-Aug-21 21:33N 48°47' W 123°33'9 6.6
2016-Aug-21 20:16N 48°48' W 123°21'6 7.5
2016-Aug-21 19:31N 48°48' W 123°12'6 6.0
2016-Aug-21 18:33N 48°51' W 123°19'7 7.1
2016-Aug-21 17:32N 48°51' W 123°30'0 0.0
2016-Aug-21 16:23N 48°51' W 123°30'0 0.0
2016-Aug-21 15:09N 48°51' W 123°30'0 0.0
2016-Aug-21 14:32N 48°51' W 123°30'0 0.0
2016-Aug-21 13:29N 48°51' W 123°30'0 0.0
2016-Aug-21 12:33N 48°51' W 123°30'0 0.0
2016-Aug-21 11:32N 48°51' W 123°30'0 0.0
2016-Aug-21 10:33N 48°51' W 123°30'0 0.0
2016-Aug-21 09:33N 48°51' W 123°30'0 0.0
2016-Aug-21 08:33N 48°51' W 123°30'0 0.0
2016-Aug-21 07:33N 48°51' W 123°30'0 0.0
2016-Aug-21 06:33N 48°51' W 123°30'0 0.0
2016-Aug-21 05:32N 48°51' W 123°30'0 0.0
2016-Aug-21 04:23N 48°51' W 123°30'0 0.0
2016-Aug-21 03:32N 48°51' W 123°30'0 0.0
2016-Aug-21 01:28N 48°51' W 123°30'10 9.6
2016-Aug-21 00:23N 48°46' W 123°16'4 4.5
2016-Aug-20 23:33N 48°49' W 123°21'7 6.1
2016-Aug-20 22:28N 48°51' W 123°30'0 0.0
2016-Aug-20 21:03N 48°51' W 123°30'0 0.0
2016-Aug-20 20:15N 48°51' W 123°30'0 0.0
2016-Aug-20 19:31N 48°51' W 123°30'0 0.0
2016-Aug-20 17:07N 48°51' W 123°30'0 0.0
2016-Aug-20 14:13N 48°51' W 123°30'0 0.0
2016-Aug-20 05:28N 48°51' W 123°30'0 0.0
2016-Aug-20 04:33N 48°51' W 123°30'0 0.0
2016-Aug-20 00:21N 48°51' W 123°30'0 0.0
2016-Aug-19 22:33N 48°51' W 123°30'0 0.0
2016-Aug-19 21:25N 48°51' W 123°30'0 0.0
2016-Aug-19 20:27N 48°51' W 123°30'0 0.0
2016-Aug-19 19:32N 48°51' W 123°30'0 0.0
2016-Aug-19 18:33N 48°51' W 123°30'0 0.0
2016-Aug-19 17:33N 48°51' W 123°30'0 0.0
2016-Aug-19 16:27N 48°51' W 123°30'0 0.0
2016-Aug-19 15:18N 48°51' W 123°30'  
Track history (hours):
 
Tides and Currents Weather Stations Pressure Air Temp Water Temp Dewpoint Dewpoint Depression Visibility Wind Speed Wind Dir Waves Ship Positions

CCGS Cape Naden

Last reported at 2016-Aug-29 14:32 UTC. Time now 2016-Aug-29 14:46 UTC.
Position N 48°51' W 123°30'.

Length 15 m; draft 0.8 m.

Type: SAR. MMSI: 316017162.

Date/timePositionNaut miles runAvg speedWind from/ knotsBaromVisibWave heightAir tempDewpointWater temp
2016-Aug-29 14:32N 48°51' W 123°30'0 0.0
2016-Aug-29 13:33N 48°51' W 123°30'0 0.0
2016-Aug-29 12:33N 48°51' W 123°30'0 0.0
2016-Aug-29 11:31N 48°51' W 123°30'0 0.0
2016-Aug-29 10:13N 48°51' W 123°30'0 0.0
2016-Aug-29 09:24N 48°51' W 123°30'0 0.0
2016-Aug-29 08:33N 48°51' W 123°30'0 0.0
2016-Aug-29 07:22N 48°51' W 123°30'0 0.0
2016-Aug-29 06:32N 48°51' W 123°30'0 0.0
2016-Aug-29 05:31N 48°51' W 123°30'0 0.0
2016-Aug-29 04:33N 48°51' W 123°30'0 0.0
2016-Aug-29 03:28N 48°51' W 123°30'0 0.0
2016-Aug-29 02:23N 48°51' W 123°30'0 0.0
2016-Aug-29 01:33N 48°51' W 123°30'0 0.0
2016-Aug-29 00:33N 48°51' W 123°30'0 0.0
2016-Aug-28 23:33N 48°51' W 123°30'0 0.0
2016-Aug-28 22:33N 48°51' W 123°30'0 0.0
2016-Aug-28 21:33N 48°51' W 123°30'0 0.0
2016-Aug-28 20:33N 48°51' W 123°30'0 0.0
2016-Aug-28 19:33N 48°51' W 123°30'0 0.0
2016-Aug-28 18:33N 48°51' W 123°30'0 0.0
2016-Aug-28 17:33N 48°51' W 123°30'0 0.0
2016-Aug-28 16:33N 48°51' W 123°30'0 0.0
2016-Aug-28 15:31N 48°51' W 123°30'0 0.0
2016-Aug-28 14:25N 48°51' W 123°30'0 0.0
2016-Aug-28 13:32N 48°51' W 123°30'0 0.0
2016-Aug-28 12:25N 48°51' W 123°30'0 0.0
2016-Aug-28 11:31N 48°51' W 123°30'0 0.0
2016-Aug-28 10:29N 48°51' W 123°30'0 0.0
2016-Aug-28 09:32N 48°51' W 123°30'0 0.0
2016-Aug-28 08:33N 48°51' W 123°30'0 0.0
2016-Aug-28 07:33N 48°51' W 123°30'0 0.0
2016-Aug-28 06:33N 48°51' W 123°30'0 0.0
2016-Aug-28 05:33N 48°51' W 123°30'0 0.0
2016-Aug-28 04:33N 48°51' W 123°30'0 0.0
2016-Aug-28 03:33N 48°51' W 123°30'0 0.0
2016-Aug-28 02:33N 48°51' W 123°30'0 0.0
2016-Aug-28 01:33N 48°51' W 123°30'0 0.0
2016-Aug-28 00:33N 48°51' W 123°30'0 0.0
2016-Aug-27 23:33N 48°51' W 123°30'0 0.0
2016-Aug-27 22:33N 48°51' W 123°30'0 0.0
2016-Aug-27 21:33N 48°51' W 123°30'0 0.0
2016-Aug-27 20:34N 48°51' W 123°30'0 0.0
2016-Aug-27 19:31N 48°51' W 123°30'0 0.0
2016-Aug-27 18:32N 48°51' W 123°30'0 0.0
2016-Aug-27 17:33N 48°51' W 123°30'0 0.0
2016-Aug-27 16:31N 48°51' W 123°30'0 0.0
2016-Aug-27 15:33N 48°51' W 123°30'0 0.0
2016-Aug-27 14:33N 48°51' W 123°30'0 0.0
2016-Aug-27 13:32N 48°51' W 123°30'0 0.0
2016-Aug-27 12:17N 48°51' W 123°30'0 0.0
2016-Aug-27 11:28N 48°51' W 123°30'0 0.0
2016-Aug-27 10:32N 48°51' W 123°30'0 0.0
2016-Aug-27 09:31N 48°51' W 123°30'0 0.0
2016-Aug-27 08:31N 48°51' W 123°30'0 0.0
2016-Aug-27 07:32N 48°51' W 123°30'0 0.0
2016-Aug-27 06:25N 48°51' W 123°30'0 0.0
2016-Aug-27 04:33N 48°51' W 123°30'0 0.0
2016-Aug-27 03:33N 48°51' W 123°30'0 0.0
2016-Aug-27 02:33N 48°51' W 123°30'0 0.0
2016-Aug-27 01:33N 48°51' W 123°30'0 0.0
2016-Aug-27 00:33N 48°51' W 123°30'0 0.0
2016-Aug-26 23:31N 48°51' W 123°30'0 0.0
2016-Aug-26 22:32N 48°51' W 123°30'4 3.9
2016-Aug-26 21:32N 48°49' W 123°25'10 9.5
2016-Aug-26 20:30N 48°39' W 123°27'2 1.8
2016-Aug-26 19:29N 48°41' W 123°29'9 9.9
2016-Aug-26 18:32N 48°50' W 123°28'2 1.9
2016-Aug-26 17:33N 48°51' W 123°30'0 0.0
2016-Aug-26 16:32N 48°51' W 123°30'0 0.0
2016-Aug-26 15:32N 48°51' W 123°30'0 0.0
2016-Aug-26 14:33N 48°51' W 123°30'0 0.0
2016-Aug-26 13:33N 48°51' W 123°30'0 0.0
2016-Aug-26 12:27N 48°51' W 123°30'0 0.0
2016-Aug-26 10:29N 48°51' W 123°30'0 0.0
2016-Aug-26 09:32N 48°51' W 123°30'0 0.0
2016-Aug-26 08:32N 48°51' W 123°30'0 0.0
2016-Aug-26 07:33N 48°51' W 123°30'0 0.0
2016-Aug-26 06:33N 48°51' W 123°30'0 0.0
2016-Aug-26 04:21N 48°51' W 123°30'0 0.0
2016-Aug-26 03:21N 48°51' W 123°30'0 0.0
2016-Aug-26 02:32N 48°51' W 123°30'0 0.0
2016-Aug-26 01:33N 48°51' W 123°30'0 0.0
2016-Aug-26 00:33N 48°51' W 123°30'0 0.0
2016-Aug-25 23:33N 48°51' W 123°30'0 0.0
2016-Aug-25 22:33N 48°51' W 123°30'0 0.0
2016-Aug-25 21:31N 48°51' W 123°30'0 0.0
2016-Aug-25 20:06N 48°51' W 123°30'0 0.0
2016-Aug-25 19:33N 48°51' W 123°30'0 0.0
2016-Aug-25 18:33N 48°51' W 123°30'0 0.0
2016-Aug-25 17:32N 48°51' W 123°30'0 0.0
2016-Aug-25 16:33N 48°51' W 123°30'0 0.0
2016-Aug-25 15:26N 48°51' W 123°30'0 0.0
2016-Aug-25 14:29N 48°51' W 123°30'0 0.0
2016-Aug-25 13:34N 48°51' W 123°30'0 0.0
2016-Aug-25 12:30N 48°51' W 123°30'0 0.0
2016-Aug-25 11:11N 48°51' W 123°30'0 0.0
2016-Aug-25 09:06N 48°51' W 123°30'0 0.0
2016-Aug-25 08:17N 48°51' W 123°30'0 0.0
2016-Aug-25 07:33N 48°51' W 123°30'0 0.0
2016-Aug-25 06:32N 48°51' W 123°30'0 0.0
2016-Aug-25 04:32N 48°51' W 123°30'0 0.0
2016-Aug-25 03:33N 48°51' W 123°30'0 0.0
2016-Aug-25 02:33N 48°51' W 123°30'0 0.0
2016-Aug-25 01:34N 48°51' W 123°30'0 0.0
2016-Aug-25 00:31N 48°51' W 123°30'0 0.0
2016-Aug-24 23:30N 48°51' W 123°30'0 0.0
2016-Aug-24 22:33N 48°51' W 123°30'0 0.0
2016-Aug-24 21:24N 48°51' W 123°30'0 0.0
2016-Aug-24 20:33N 48°51' W 123°30'0 0.0
2016-Aug-24 19:32N 48°51' W 123°30'2 1.3
2016-Aug-24 18:14N 48°52' W 123°27'2 2.2
2016-Aug-24 17:30N 48°50' W 123°26'3 0.4
2016-Aug-24 11:08N 48°51' W 123°30'0 0.0
2016-Aug-24 10:31N 48°51' W 123°30'0 0.0
2016-Aug-24 09:33N 48°51' W 123°30'0 0.0
2016-Aug-24 08:29N 48°51' W 123°30'0 0.0
2016-Aug-24 07:32N 48°51' W 123°30'0 0.0
2016-Aug-24 06:32N 48°51' W 123°30'0 0.0
2016-Aug-24 04:31N 48°51' W 123°30'0 0.0
2016-Aug-24 03:30N 48°51' W 123°30'0 0.0
2016-Aug-24 02:27N 48°51' W 123°30'0 0.0
2016-Aug-24 01:31N 48°51' W 123°30'0 0.0
2016-Aug-24 00:25N 48°51' W 123°30'0 0.0
2016-Aug-23 23:31N 48°51' W 123°30'0 0.0
2016-Aug-23 22:31N 48°51' W 123°30'0 0.0
2016-Aug-23 21:30N 48°51' W 123°30'0 0.0
2016-Aug-23 20:33N 48°51' W 123°30'0 0.0
2016-Aug-23 19:33N 48°51' W 123°30'0 0.0
2016-Aug-23 18:32N 48°51' W 123°30'0 0.0
2016-Aug-23 17:33N 48°51' W 123°30'0 0.0
2016-Aug-23 16:33N 48°51' W 123°30'0 0.0
2016-Aug-23 15:34N 48°51' W 123°30'0 0.0
2016-Aug-23 14:09N 48°51' W 123°30'0 0.0
2016-Aug-23 13:30N 48°51' W 123°30'0 0.0
2016-Aug-23 12:25N 48°51' W 123°30'0 0.0
2016-Aug-23 11:31N 48°51' W 123°30'0 0.0
2016-Aug-23 10:32N 48°51' W 123°30'0 0.0
2016-Aug-23 09:34N 48°51' W 123°30'0 0.0
2016-Aug-23 08:33N 48°51' W 123°30'0 0.0
2016-Aug-23 07:33N 48°51' W 123°30'0 0.0
2016-Aug-23 06:33N 48°51' W 123°30'0 0.0
2016-Aug-23 05:31N 48°51' W 123°30'0 0.0
2016-Aug-23 04:33N 48°51' W 123°30'0 0.0
2016-Aug-23 03:31N 48°51' W 123°30'0 0.0
2016-Aug-23 02:33N 48°51' W 123°30'0 0.0
2016-Aug-23 01:31N 48°51' W 123°30'0 0.0
2016-Aug-23 00:32N 48°51' W 123°30'0 0.0
2016-Aug-22 23:33N 48°51' W 123°30'0 0.0
2016-Aug-22 22:33N 48°51' W 123°30'0 0.0
2016-Aug-22 21:17N 48°51' W 123°30'0 0.0
2016-Aug-22 19:29N 48°51' W 123°30'0 0.0
2016-Aug-22 18:22N 48°51' W 123°30'0 0.0
2016-Aug-22 17:24N 48°51' W 123°30'0 0.0
2016-Aug-22 16:31N 48°51' W 123°30'0 0.0
2016-Aug-22 15:32N 48°51' W 123°30'0 0.0
2016-Aug-22 14:33N 48°51' W 123°30'0 0.0
2016-Aug-22 13:33N 48°51' W 123°30'0 0.0
2016-Aug-22 12:33N 48°51' W 123°30'0 0.0
2016-Aug-22 11:33N 48°51' W 123°30'0 0.0
2016-Aug-22 10:33N 48°51' W 123°30'0 0.0
2016-Aug-22 09:33N 48°51' W 123°30'0 0.0
2016-Aug-22 08:33N 48°51' W 123°30'0 0.0
2016-Aug-22 07:33N 48°51' W 123°30'0 0.0
2016-Aug-22 06:32N 48°51' W 123°30'0 0.0
2016-Aug-22 04:31N 48°51' W 123°30'0 0.0
2016-Aug-22 03:33N 48°51' W 123°30'0 0.0
2016-Aug-22 02:33N 48°51' W 123°30'0 0.0
2016-Aug-22 01:23N 48°51' W 123°30'0 0.0
2016-Aug-22 00:26N 48°51' W 123°30'0 0.1
2016-Aug-21 23:25N 48°51' W 123°30'5 4.9
2016-Aug-21 22:21N 48°47' W 123°34'0 0.4
2016-Aug-21 21:33N 48°47' W 123°33'9 6.6
2016-Aug-21 20:16N 48°48' W 123°21'6 7.5
2016-Aug-21 19:31N 48°48' W 123°12'6 6.0
2016-Aug-21 18:33N 48°51' W 123°19'7 7.1
2016-Aug-21 17:32N 48°51' W 123°30'0 0.0
2016-Aug-21 16:23N 48°51' W 123°30'0 0.0
2016-Aug-21 15:09N 48°51' W 123°30'0 0.0
2016-Aug-21 14:32N 48°51' W 123°30'0 0.0
2016-Aug-21 13:29N 48°51' W 123°30'0 0.0
2016-Aug-21 12:33N 48°51' W 123°30'0 0.0
2016-Aug-21 11:32N 48°51' W 123°30'0 0.0
2016-Aug-21 10:33N 48°51' W 123°30'0 0.0
2016-Aug-21 09:33N 48°51' W 123°30'0 0.0
2016-Aug-21 08:33N 48°51' W 123°30'0 0.0
2016-Aug-21 07:33N 48°51' W 123°30'0 0.0
2016-Aug-21 06:33N 48°51' W 123°30'0 0.0
2016-Aug-21 05:32N 48°51' W 123°30'0 0.0
2016-Aug-21 04:23N 48°51' W 123°30'0 0.0
2016-Aug-21 03:32N 48°51' W 123°30'0 0.0
2016-Aug-21 01:28N 48°51' W 123°30'10 9.6
2016-Aug-21 00:23N 48°46' W 123°16'4 4.5
2016-Aug-20 23:33N 48°49' W 123°21'7 6.1
2016-Aug-20 22:28N 48°51' W 123°30'0 0.0
2016-Aug-20 21:03N 48°51' W 123°30'0 0.0
2016-Aug-20 20:15N 48°51' W 123°30'0 0.0
2016-Aug-20 19:31N 48°51' W 123°30'0 0.0
2016-Aug-20 17:07N 48°51' W 123°30'0 0.0
2016-Aug-20 14:13N 48°51' W 123°30'0 0.0
2016-Aug-20 05:28N 48°51' W 123°30'0 0.0
2016-Aug-20 04:33N 48°51' W 123°30'0 0.0
2016-Aug-20 00:21N 48°51' W 123°30'0 0.0
2016-Aug-19 22:33N 48°51' W 123°30'0 0.0
2016-Aug-19 21:25N 48°51' W 123°30'0 0.0
2016-Aug-19 20:27N 48°51' W 123°30'0 0.0
2016-Aug-19 19:32N 48°51' W 123°30'0 0.0
2016-Aug-19 18:33N 48°51' W 123°30'0 0.0
2016-Aug-19 17:33N 48°51' W 123°30'0 0.0
2016-Aug-19 16:27N 48°51' W 123°30'0 0.0
2016-Aug-19 15:18N 48°51' W 123°30'  

Dump ship's entire track history